Time;durP1;ratioP1;P1;durP2;ratioP2;P2;SDS_P1;SDS_P2;PMS_P1;PMS_P2;Temp;Humidity;BMP_temperature;BMP_pressure;BME280_temperature;BME280_humidity;BME280_pressure;Samples;Min_cycle;Max_cycle;Signal;HPM_P1;HPM_P2
2022/06/02 00:01:48;;;;;;;14.45;12.95;;;9.10;99.90;;;;;;5046225;28;20045;-69
2022/06/02 00:04:32;;;;;;;14.07;12.68;;;9.00;99.90;;;;;;5050589;28;20856;-69
2022/06/02 00:07:22;;;;;;;15.18;12.73;;;9.00;99.90;;;;;;5048625;28;20668;-69
2022/06/02 00:09:53;;;;;;;26.13;13.63;;;8.90;99.90;;;;;;5053473;28;20110;-69
2022/06/02 00:12:47;;;;;;;14.20;12.63;;;8.90;99.90;;;;;;5047962;28;20044;-69
2022/06/02 00:15:37;;;;;;;15.98;13.63;;;8.90;99.90;;;;;;5052669;28;20119;-69
2022/06/02 00:18:19;;;;;;;15.45;13.43;;;8.90;99.90;;;;;;5054211;28;20048;-69
2022/06/02 00:20:50;;;;;;;17.85;12.90;;;8.80;99.90;;;;;;5066249;28;20048;-69
2022/06/02 00:23:40;;;;;;;19.48;14.35;;;8.80;99.90;;;;;;5053689;28;20501;-68
2022/06/02 00:26:14;;;;;;;19.13;14.55;;;8.80;99.90;;;;;;5048236;28;20048;-69
2022/06/02 00:29:07;;;;;;;17.52;13.93;;;8.70;99.90;;;;;;5048861;28;20049;-69
2022/06/02 00:31:41;;;;;;;15.90;14.00;;;8.70;99.90;;;;;;5051369;28;20391;-69
2022/06/02 00:34:34;;;;;;;19.17;14.63;;;8.60;99.90;;;;;;5055191;28;20102;-69
2022/06/02 00:37:20;;;;;;;17.98;14.88;;;8.60;99.90;;;;;;5051826;28;20512;-69
2022/06/02 00:39:48;;;;;;;17.30;14.65;;;8.50;99.90;;;;;;5056125;28;20080;-69
2022/06/02 00:42:26;;;;;;;17.88;14.90;;;8.50;99.90;;;;;;5057296;28;20055;-68
2022/06/02 00:44:59;;;;;;;;;;;8.50;99.90;;;;;;5063632;28;20127;-68
2022/06/02 00:47:43;;;;;;;20.95;14.38;;;8.40;99.90;;;;;;5050986;28;20372;-68
2022/06/02 00:50:28;;;;;;;15.50;13.88;;;8.40;99.90;;;;;;5051140;28;20079;-68
2022/06/02 00:53:12;;;;;;;16.05;13.77;;;8.40;99.90;;;;;;5060043;28;20103;-68
2022/06/02 00:58:53;;;;;;;16.98;15.20;;;8.30;99.90;;;;;;5047501;28;20059;-68
2022/06/02 01:01:26;;;;;;;15.07;13.00;;;8.30;99.90;;;;;;5058699;28;20056;-69
2022/06/02 01:03:54;;;;;;;14.57;12.40;;;8.30;99.90;;;;;;5057097;28;20064;-69
2022/06/02 01:06:26;;;;;;;;;;;8.30;99.90;;;;;;5048044;28;21556;-69
2022/06/02 01:09:12;;;;;;;15.20;11.32;;;8.20;99.90;;;;;;5047706;28;19982;-68
2022/06/02 01:12:06;;;;;;;14.30;12.35;;;8.20;99.90;;;;;;5048616;28;20037;-69
2022/06/02 01:14:48;;;;;;;13.70;12.27;;;8.20;99.90;;;;;;5051981;28;20040;-69
2022/06/02 01:17:26;;;;;;;14.82;13.13;;;8.20;99.90;;;;;;5061434;28;20084;-69
2022/06/02 01:20:06;;;;;;;21.52;14.73;;;8.10;99.90;;;;;;5057904;28;20044;-68
2022/06/02 01:22:50;;;;;;;18.00;14.55;;;8.10;99.90;;;;;;5064678;28;20125;-69
2022/06/02 01:25:28;;;;;;;15.43;13.85;;;8.10;99.90;;;;;;5061240;28;20143;-69
2022/06/02 01:28:32;;;;;;;19.10;14.07;;;8.10;99.90;;;;;;5057116;28;20075;-69
2022/06/02 01:31:16;;;;;;;19.00;15.02;;;8.00;99.90;;;;;;5067825;28;20124;-69
2022/06/02 01:33:59;;;;;;;20.20;15.70;;;8.00;99.90;;;;;;5055184;28;20036;-69
2022/06/02 01:36:41;;;;;;;15.02;12.93;;;8.00;99.90;;;;;;5053009;28;20068;-69
2022/06/02 01:39:39;;;;;;;19.88;14.20;;;7.90;99.90;;;;;;5042373;28;20101;-68
2022/06/02 01:42:26;;;;;;;19.35;15.32;;;7.90;99.90;;;;;;5029899;28;20052;-69
2022/06/02 01:45:10;;;;;;;16.90;14.93;;;7.90;99.90;;;;;;5057023;28;20064;-69
2022/06/02 01:47:40;;;;;;;19.23;15.70;;;7.90;99.90;;;;;;5059931;28;20041;-69
2022/06/02 01:50:44;;;;;;;16.48;14.73;;;7.80;99.90;;;;;;5053455;28;20314;-68
2022/06/02 01:53:50;;;;;;;18.05;15.90;;;7.80;99.90;;;;;;5067394;28;20514;-68
2022/06/02 01:56:25;;;;;;;19.45;16.17;;;7.80;99.90;;;;;;5050857;28;20827;-68
2022/06/02 01:59:28;;;;;;;19.73;16.20;;;7.80;99.90;;;;;;5051322;28;20037;-68
2022/06/02 02:02:09;;;;;;;18.13;15.13;;;7.70;99.90;;;;;;5054846;28;20040;-68
2022/06/02 02:05:00;;;;;;;17.30;14.73;;;7.70;99.90;;;;;;5060054;28;20095;-68
2022/06/02 02:07:58;;;;;;;19.67;15.15;;;7.70;99.90;;;;;;5061479;28;20132;-68
2022/06/02 02:10:24;;;;;;;;;;;7.60;99.90;;;;;;5053608;28;20060;-68
2022/06/02 02:13:07;;;;;;;20.85;15.55;;;7.60;99.90;;;;;;5066787;28;19924;-68
2022/06/02 02:15:46;;;;;;;22.83;18.40;;;7.60;99.90;;;;;;5050050;28;20044;-68
2022/06/02 02:18:18;;;;;;;22.85;16.30;;;7.50;99.90;;;;;;5059627;28;20044;-68
2022/06/02 02:21:00;;;;;;;20.40;17.00;;;7.60;99.90;;;;;;5052347;28;20557;-68
2022/06/02 02:24:07;;;;;;;27.58;17.65;;;7.50;99.90;;;;;;5056864;28;20045;-68
2022/06/02 02:26:39;;;;;;;20.30;17.73;;;7.50;99.90;;;;;;5056395;28;20052;-68
2022/06/02 02:29:30;;;;;;;29.48;18.17;;;7.50;99.90;;;;;;5053782;28;20052;-68
2022/06/02 02:32:20;;;;;;;18.60;16.33;;;7.40;99.90;;;;;;5054959;28;20076;-68
2022/06/02 02:34:59;;;;;;;23.48;17.77;;;7.40;99.90;;;;;;5066321;28;20143;-67
2022/06/02 02:37:34;;;;;;;19.80;15.50;;;7.40;99.90;;;;;;5067512;28;20050;-67
2022/06/02 02:40:12;;;;;;;19.08;16.35;;;7.40;99.90;;;;;;5065122;28;20097;-68
2022/06/02 02:42:51;;;;;;;21.30;16.92;;;7.40;99.90;;;;;;5056076;28;20086;-67
2022/06/02 02:45:53;;;;;;;23.00;17.38;;;7.30;99.90;;;;;;5062627;28;20049;-67
2022/06/02 02:48:43;;;;;;;20.98;16.23;;;7.30;99.90;;;;;;5051977;28;20094;-68
2022/06/02 02:51:33;;;;;;;21.60;17.52;;;7.30;99.90;;;;;;5041137;28;20219;-68
2022/06/02 02:54:08;;;;;;;20.90;16.40;;;7.30;99.90;;;;;;5067348;28;20051;-67
2022/06/02 02:56:58;;;;;;;21.60;17.40;;;7.20;99.90;;;;;;5053414;28;20044;-67
2022/06/02 02:59:57;;;;;;;17.15;15.32;;;7.20;99.90;;;;;;5068915;28;20048;-68
2022/06/02 03:02:42;;;;;;;23.25;18.35;;;7.20;99.90;;;;;;5049520;28;20540;-68
2022/06/02 03:05:47;;;;;;;22.77;17.73;;;7.20;99.90;;;;;;5061218;28;20099;-68
2022/06/02 03:08:44;;;;;;;22.40;17.58;;;7.10;99.90;;;;;;5022425;28;20064;-68
2022/06/02 03:11:31;;;;;;;22.98;19.17;;;7.10;99.90;;;;;;5056823;28;20099;-67
2022/06/02 03:14:34;;;;;;;23.25;19.05;;;7.10;99.90;;;;;;5058459;28;20053;-68
2022/06/02 03:17:30;;;;;;;24.60;20.02;;;7.10;99.90;;;;;;5049197;28;20057;-68
2022/06/02 03:20:09;;;;;;;23.38;18.55;;;7.10;99.90;;;;;;5053288;28;20052;-67
2022/06/02 03:22:45;;;;;;;19.27;17.10;;;7.10;99.90;;;;;;5050876;28;20045;-68
2022/06/02 03:25:20;;;;;;;20.73;17.33;;;7.00;99.90;;;;;;5059605;28;20079;-68
2022/06/02 03:27:56;;;;;;;22.33;17.58;;;7.00;99.90;;;;;;5050006;28;20435;-67
2022/06/02 03:30:25;;;;;;;24.45;19.50;;;7.00;99.90;;;;;;5047881;28;20053;-68
2022/06/02 03:33:15;;;;;;;20.27;17.35;;;6.90;99.90;;;;;;5050548;28;20055;-67
2022/06/02 03:36:01;;;;;;;24.55;20.05;;;6.90;99.90;;;;;;5052995;28;20056;-68
2022/06/02 03:38:49;;;;;;;27.73;20.40;;;6.90;99.90;;;;;;5053735;28;20049;-67
2022/06/02 03:41:37;;;;;;;25.25;19.23;;;7.00;99.90;;;;;;5056725;28;20041;-68
2022/06/02 03:44:27;;;;;;;24.88;19.25;;;6.90;99.90;;;;;;5051675;28;20045;-68
2022/06/02 03:47:04;;;;;;;27.63;20.77;;;6.90;99.90;;;;;;5055777;28;20069;-68
2022/06/02 03:49:58;;;;;;;24.35;20.23;;;6.90;99.90;;;;;;5048636;28;20061;-68
2022/06/02 03:52:37;;;;;;;23.65;20.45;;;7.00;99.90;;;;;;5051219;28;20052;-68
2022/06/02 03:55:24;;;;;;;23.95;19.92;;;7.00;99.90;;;;;;5051949;28;20049;-68
2022/06/02 03:58:20;;;;;;;24.67;20.13;;;7.00;99.90;;;;;;5048494;28;20045;-68
2022/06/02 04:01:09;;;;;;;30.65;22.70;;;7.00;99.90;;;;;;5049480;28;20036;-68
2022/06/02 04:03:49;;;;;;;29.38;21.95;;;7.00;99.90;;;;;;5048282;28;20068;-68
2022/06/02 04:06:40;;;;;;;31.83;22.02;;;7.10;99.90;;;;;;5049096;28;20052;-67
2022/06/02 04:09:18;;;;;;;27.67;23.15;;;7.10;99.90;;;;;;5063912;28;20545;-68
2022/06/02 04:15:08;;;;;;;28.63;20.58;;;7.20;99.90;;;;;;5047678;28;20052;-68
2022/06/02 04:17:44;;;;;;;27.98;21.95;;;7.30;99.90;;;;;;5059214;28;20132;-68
2022/06/02 04:20:35;;;;;;;25.48;20.98;;;7.30;99.90;;;;;;5059266;28;20056;-68
2022/06/02 04:23:19;;;;;;;26.98;21.98;;;7.40;99.90;;;;;;5053997;28;20115;-68
2022/06/02 04:26:23;;;;;;;26.27;22.10;;;7.40;99.90;;;;;;5048254;28;20116;-68
2022/06/02 04:28:52;;;;;;;24.92;20.30;;;7.50;99.90;;;;;;5047777;28;20048;-68
2022/06/02 04:31:45;;;;;;;25.35;21.48;;;7.50;99.90;;;;;;5057870;28;20417;-68
2022/06/02 04:34:25;;;;;;;29.33;23.98;;;7.50;99.90;;;;;;5048877;28;20084;-68
2022/06/02 04:37:12;;;;;;;33.78;24.58;;;7.60;99.90;;;;;;5052960;28;20047;-68
2022/06/02 04:40:10;;;;;;;38.33;24.48;;;7.60;99.90;;;;;;5051003;28;20041;-68
2022/06/02 04:43:14;;;;;;;31.42;23.95;;;7.60;99.90;;;;;;5046428;28;20802;-68
2022/06/02 04:46:14;;;;;;;36.90;27.77;;;7.70;99.90;;;;;;5033276;28;20371;-67
2022/06/02 04:48:45;;;;;;;30.95;25.17;;;7.70;99.90;;;;;;5046028;28;20056;-67
2022/06/02 04:51:45;;;;;;;45.92;27.80;;;7.80;99.90;;;;;;5055231;28;20053;-68
2022/06/02 04:54:32;;;;;;;35.72;25.38;;;7.90;99.90;;;;;;5018476;28;20061;-68
2022/06/02 04:57:05;;;;;;;40.33;29.35;;;7.90;99.90;;;;;;5057688;28;20048;-68
2022/06/02 04:59:52;;;;;;;33.50;26.40;;;8.00;99.90;;;;;;5046959;28;20143;-69
2022/06/02 05:02:56;;;;;;;39.85;30.23;;;8.00;99.90;;;;;;5055031;28;20054;-69
2022/06/02 05:05:31;;;;;;;39.50;28.05;;;8.10;99.90;;;;;;5015381;28;20060;-68
2022/06/02 05:08:06;;;;;;;40.78;27.65;;;8.20;99.90;;;;;;5060914;28;20041;-69
2022/06/02 05:10:35;;;;;;;40.53;28.67;;;8.20;99.90;;;;;;5051584;28;20505;-69
2022/06/02 05:13:35;;;;;;;33.67;24.90;;;8.30;99.90;;;;;;5040505;28;20090;-68
2022/06/02 05:16:20;;;;;;;36.50;27.33;;;8.40;99.90;;;;;;5052062;28;20402;-69
2022/06/02 05:18:46;;;;;;;35.88;27.00;;;8.40;99.90;;;;;;5061926;28;20488;-68
2022/06/02 05:21:50;;;;;;;33.55;26.27;;;8.50;99.90;;;;;;5058260;28;20045;-68
2022/06/02 05:24:48;;;;;;;33.20;26.67;;;8.50;99.90;;;;;;5045227;28;20071;-68
2022/06/02 05:27:20;;;;;;;;;;;8.60;99.90;;;;;;5050087;28;20065;-69
2022/06/02 05:30:13;;;;;;;36.30;24.10;;;8.70;99.90;;;;;;5046759;28;20327;-69
2022/06/02 05:32:51;;;;;;;40.78;25.65;;;8.80;99.90;;;;;;5058034;28;20045;-69
2022/06/02 05:35:45;;;;;;;31.17;25.00;;;8.90;99.90;;;;;;5060402;28;20049;-69
2022/06/02 05:38:33;;;;;;;31.92;23.25;;;9.00;99.90;;;;;;5055050;28;20127;-70
2022/06/02 05:41:29;;;;;;;40.53;26.08;;;9.10;99.90;;;;;;5050052;28;20066;-69
2022/06/02 05:43:58;;;;;;;27.85;22.45;;;9.30;99.90;;;;;;5056384;28;20048;-69
2022/06/02 05:46:42;;;;;;;26.17;22.77;;;9.50;99.90;;;;;;5048015;28;20049;-68
2022/06/02 05:49:14;;;;;;;21.92;19.52;;;9.60;99.90;;;;;;5049754;28;20045;-68
2022/06/02 05:51:57;;;;;;;25.13;18.85;;;9.80;99.90;;;;;;5051868;28;20071;-68
2022/06/02 05:55:10;;;;;;;23.80;18.38;;;10.00;99.90;;;;;;5060012;28;20155;-69
2022/06/02 05:57:57;;;;;;;22.75;17.70;;;10.10;99.90;;;;;;4993630;28;20049;-69
2022/06/02 06:00:41;;;;;;;20.33;18.17;;;10.10;99.90;;;;;;5049200;28;20454;-68
2022/06/02 06:03:50;;;;;;;22.55;19.17;;;10.20;99.90;;;;;;5047014;28;20529;-69
2022/06/02 06:06:28;;;;;;;20.65;17.65;;;10.40;99.90;;;;;;5059045;28;20041;-69
2022/06/02 06:08:57;;;;;;;23.48;17.52;;;10.50;99.90;;;;;;5055863;28;20041;-69
2022/06/02 06:11:41;;;;;;;22.77;16.30;;;10.60;99.90;;;;;;5059168;28;20056;-69
2022/06/02 06:14:15;;;;;;;19.30;17.13;;;10.60;99.90;;;;;;5065224;28;20080;-68
2022/06/02 06:16:58;;;;;;;20.45;17.35;;;10.70;99.90;;;;;;5057358;28;20452;-69
2022/06/02 06:19:24;;;;;;;18.98;16.13;;;10.80;99.90;;;;;;5052967;28;20067;-69
2022/06/02 06:22:20;;;;;;;19.92;15.70;;;10.90;99.90;;;;;;5057284;28;20493;-69
2022/06/02 06:25:13;;;;;;;17.50;13.40;;;11.10;99.90;;;;;;5055487;28;20045;-69
2022/06/02 06:28:03;;;;;;;19.10;12.40;;;11.30;99.90;;;;;;5052104;28;20048;-69
2022/06/02 06:31:03;;;;;;;13.32;11.93;;;11.40;99.90;;;;;;5056176;28;20045;-68
2022/06/02 06:34:17;;;;;;;17.20;10.60;;;11.70;99.90;;;;;;5038932;28;20049;-69
2022/06/02 06:37:02;;;;;;;10.75;9.65;;;11.90;99.90;;;;;;5005197;28;20140;-69
2022/06/02 06:40:05;;;;;;;14.43;10.15;;;12.20;99.90;;;;;;5058089;28;20565;-69
2022/06/02 06:42:50;;;;;;;9.68;8.27;;;12.40;99.90;;;;;;5055332;28;20037;-68
2022/06/02 06:45:22;;;;;;;8.23;7.43;;;12.70;99.90;;;;;;5052025;28;20045;-68
2022/06/02 06:48:01;;;;;;;12.73;8.02;;;12.90;99.90;;;;;;5055897;28;20040;-68
2022/06/02 06:50:38;;;;;;;8.90;7.25;;;13.10;99.90;;;;;;5053936;28;20049;-68
2022/06/02 06:53:54;;;;;;;7.95;6.72;;;13.40;99.90;;;;;;5051644;28;20707;-68
2022/06/02 06:56:41;;;;;;;10.18;6.63;;;13.70;99.90;;;;;;4977829;28;20111;-68
2022/06/02 06:59:53;;;;;;;9.00;8.10;;;13.80;99.90;;;;;;4980476;28;20915;-68
2022/06/02 07:02:47;;;;;;;10.90;7.18;;;14.20;99.90;;;;;;5056109;28;20043;-69
2022/06/02 07:05:18;;;;;;;7.07;6.28;;;14.50;99.90;;;;;;5055531;28;20049;-69
2022/06/02 07:08:28;;;;;;;20.35;7.82;;;14.80;99.90;;;;;;5063169;28;20044;-68
2022/06/02 07:12:50;;;;;;;6.20;5.63;;;15.00;99.90;;;;;;5022570;28;20132;-68
2022/06/02 07:14:10;;;;;;;8.90;4.72;;;15.10;99.90;;;;;;5056619;28;20068;-68
2022/06/02 07:16:57;;;;;;;5.65;5.07;;;15.30;99.90;;;;;;5049706;28;20520;-68
2022/06/02 07:20:00;;;;;;;6.15;5.07;;;15.50;99.90;;;;;;5062805;28;20060;-68
2022/06/02 07:22:53;;;;;;;5.22;4.72;;;15.40;99.90;;;;;;5048586;28;20538;-68
2022/06/02 07:25:49;;;;;;;6.68;4.40;;;15.30;99.90;;;;;;5049988;28;20099;-68
2022/06/02 07:28:22;;;;;;;10.25;5.07;;;15.50;99.90;;;;;;5050014;28;20080;-67
2022/06/02 07:31:20;;;;;;;4.75;4.35;;;15.70;99.90;;;;;;5052253;28;20045;-68
2022/06/02 07:34:13;;;;;;;9.85;4.13;;;15.80;99.90;;;;;;5068335;28;20052;-67
2022/06/02 07:36:49;;;;;;;7.78;4.57;;;15.70;99.90;;;;;;5050984;28;20055;-67
2022/06/02 07:39:30;;;;;;;8.02;4.80;;;15.90;99.90;;;;;;5052774;28;21213;-67
2022/06/02 07:42:28;;;;;;;6.00;5.30;;;16.20;99.90;;;;;;5053055;28;20041;-68
2022/06/02 07:44:59;;;;;;;4.28;3.88;;;16.60;99.90;;;;;;5049774;28;20482;-67
2022/06/02 07:48:01;;;;;;;7.07;5.47;;;16.90;99.90;;;;;;5058539;28;20094;-68
2022/06/02 07:50:30;;;;;;;8.73;4.95;;;17.00;99.90;;;;;;5007527;28;20071;-67
2022/06/02 07:53:02;;;;;;;8.48;4.38;;;16.80;99.90;;;;;;5049406;28;20445;-67
2022/06/02 07:55:52;;;;;;;3.90;3.60;;;16.70;99.90;;;;;;5049809;28;20036;-66
2022/06/02 07:58:39;;;;;;;8.85;4.05;;;16.60;99.90;;;;;;5061657;28;20040;-66
2022/06/02 08:01:14;;;;;;;4.07;3.60;;;16.90;99.90;;;;;;5056114;28;20521;-66
2022/06/02 08:04:15;;;;;;;7.75;4.43;;;16.80;99.90;;;;;;5057111;28;20040;-66
2022/06/02 08:06:41;;;;;;;5.97;4.60;;;16.80;99.90;;;;;;5051943;28;20041;-66
2022/06/02 08:09:23;;;;;;;6.45;4.22;;;16.70;99.90;;;;;;5058206;28;20045;-66
2022/06/02 08:11:49;;;;;;;4.30;3.45;;;16.90;99.90;;;;;;5050526;28;20047;-67
2022/06/02 08:14:31;;;;;;;10.02;4.47;;;16.70;99.90;;;;;;5063829;28;20453;-67
2022/06/02 08:16:57;;;;;;;4.78;4.28;;;16.70;99.90;;;;;;5061293;28;20047;-67
2022/06/02 08:19:37;;;;;;;6.47;4.43;;;16.40;99.90;;;;;;5059420;28;20041;-67
2022/06/02 08:22:08;;;;;;;4.80;4.20;;;16.60;99.90;;;;;;5056131;28;20041;-67
2022/06/02 08:24:54;;;;;;;6.28;4.13;;;16.90;99.90;;;;;;5048024;28;20049;-67
2022/06/02 08:27:41;;;;;;;4.87;4.43;;;17.20;99.90;;;;;;5046883;28;21000;-67
2022/06/02 08:30:12;;;;;;;4.90;4.32;;;17.50;99.90;;;;;;5050362;28;20045;-67
2022/06/02 08:33:03;;;;;;;8.25;4.45;;;17.60;99.90;;;;;;5059246;28;20052;-67
2022/06/02 08:36:10;;;;;;;4.40;4.00;;;17.70;99.90;;;;;;5049754;28;20049;-67
2022/06/02 08:38:46;;;;;;;9.07;4.75;;;17.60;99.90;;;;;;5049449;28;20080;-67
2022/06/02 08:41:40;;;;;;;6.82;4.63;;;17.40;99.90;;;;;;5052838;28;20041;-67
2022/06/02 08:44:12;;;;;;;6.57;5.20;;;17.40;99.90;;;;;;5058681;28;20044;-68
2022/06/02 08:46:37;;;;;;;7.10;4.88;;;17.60;99.90;;;;;;5054105;28;20041;-68
2022/06/02 08:49:31;;;;;;;9.10;5.15;;;18.00;99.90;;;;;;5059384;28;20431;-68
2022/06/02 08:51:56;;;;;;;5.00;4.57;;;18.10;99.90;;;;;;5050481;28;20052;-68
2022/06/02 08:54:59;;;;;;;6.10;5.50;;;18.10;99.90;;;;;;5056341;28;20095;-68
2022/06/02 08:57:41;;;;;;;7.10;5.72;;;18.10;99.90;;;;;;5048650;28;20040;-68
2022/06/02 09:00:24;;;;;;;8.25;5.18;;;17.90;99.90;;;;;;5046057;28;20110;-68
2022/06/02 09:03:12;;;;;;;5.97;4.72;;;17.90;99.90;;;;;;5047697;28;20518;-68
2022/06/02 09:05:50;;;;;;;4.50;4.15;;;18.00;99.90;;;;;;5064115;28;20079;-68
2022/06/02 09:08:43;;;;;;;5.70;4.20;;;18.00;99.90;;;;;;5061454;28;20080;-68
2022/06/02 09:11:29;;;;;;;5.20;3.90;;;18.20;99.90;;;;;;5052529;28;20041;-68
2022/06/02 09:14:23;;;;;;;5.30;3.90;;;18.40;99.90;;;;;;5056349;28;20088;-68
2022/06/02 09:17:11;;;;;;;10.50;5.20;;;18.50;99.90;;;;;;5047447;28;20045;-68
2022/06/02 09:19:59;;;;;;;;;;;18.80;99.90;;;;;;5053437;28;20051;-69
2022/06/02 09:22:41;;;;;;;6.32;4.10;;;18.90;99.90;;;;;;5019026;28;20451;-68
2022/06/02 09:25:42;;;;;;;4.50;4.10;;;18.80;99.90;;;;;;5057199;28;20083;-68
2022/06/02 09:28:22;;;;;;;7.90;4.30;;;18.80;99.90;;;;;;5046428;28;20029;-69
2022/06/02 09:30:50;;;;;;;6.47;3.97;;;18.80;99.90;;;;;;5047114;28;20049;-68
2022/06/02 09:33:34;;;;;;;6.75;3.97;;;18.90;99.90;;;;;;5060088;28;20111;-68
2022/06/02 09:36:08;;;;;;;8.98;5.07;;;19.00;97.40;;;;;;5058138;28;20037;-69
2022/06/02 09:38:56;;;;;;;5.63;4.10;;;18.70;99.90;;;;;;5048111;28;20764;-68
2022/06/02 09:41:40;;;;;;;5.15;4.65;;;18.70;99.90;;;;;;5060071;28;20448;-68
2022/06/02 09:44:19;;;;;;;7.68;4.55;;;18.70;99.90;;;;;;5047651;28;20096;-68
2022/06/02 09:47:13;;;;;;;11.57;4.72;;;18.60;99.90;;;;;;5050533;28;20496;-68
2022/06/02 09:50:16;;;;;;;14.80;5.82;;;18.30;99.90;;;;;;5052939;28;20604;-68
2022/06/02 09:52:57;;;;;;;6.35;4.43;;;18.40;99.90;;;;;;5057134;28;20507;-68
2022/06/02 09:55:47;;;;;;;7.18;4.72;;;18.60;99.90;;;;;;5050716;28;20090;-67
2022/06/02 09:58:33;;;;;;;4.40;4.03;;;18.80;99.90;;;;;;5050795;28;20045;-67
2022/06/02 10:01:21;;;;;;;4.28;3.60;;;18.90;99.90;;;;;;5060883;28;20037;-68
2022/06/02 10:04:25;;;;;;;7.15;4.60;;;18.80;99.90;;;;;;5053249;28;20409;-67
2022/06/02 10:07:04;;;;;;;5.60;4.97;;;18.70;99.90;;;;;;5059728;28;20067;-67
2022/06/02 10:10:09;;;;;;;3.95;3.55;;;18.70;99.90;;;;;;5049740;28;20052;-67
2022/06/02 10:12:57;;;;;;;4.70;4.25;;;18.80;99.90;;;;;;5049931;28;20091;-67
2022/06/02 10:15:43;;;;;;;6.28;4.15;;;18.80;99.90;;;;;;5050894;28;20581;-67
2022/06/02 10:18:31;;;;;;;8.02;4.38;;;18.90;99.90;;;;;;5059091;28;20404;-67
2022/06/02 10:21:12;;;;;;;10.43;4.03;;;18.80;99.90;;;;;;5062191;28;20037;-67
2022/06/02 10:23:40;;;;;;;4.30;3.90;;;18.70;99.90;;;;;;5049955;28;20072;-67
2022/06/02 10:26:11;;;;;;;4.28;3.75;;;18.70;99.90;;;;;;5055865;28;20044;-67
2022/06/02 10:29:05;;;;;;;4.05;3.67;;;18.90;99.90;;;;;;5068163;28;20120;-67
2022/06/02 10:31:49;;;;;;;4.60;4.25;;;18.90;99.90;;;;;;5057342;28;20114;-67
2022/06/02 10:34:51;;;;;;;4.50;4.10;;;19.00;99.90;;;;;;5057287;28;20044;-67
2022/06/02 10:37:17;;;;;;;5.90;4.15;;;19.30;99.90;;;;;;5057863;28;20127;-67
2022/06/02 10:40:02;;;;;;;5.35;3.83;;;19.20;99.90;;;;;;5055807;28;20083;-67
2022/06/02 10:42:48;;;;;;;10.55;4.82;;;19.10;99.90;;;;;;5056908;28;20101;-67
2022/06/02 10:45:33;;;;;;;4.22;3.83;;;19.10;99.90;;;;;;5053754;28;20412;-67
2022/06/02 10:48:35;;;;;;;4.68;3.78;;;19.30;99.90;;;;;;5051056;28;20119;-67
2022/06/02 10:51:29;;;;;;;4.53;4.13;;;19.30;99.90;;;;;;5061207;28;20064;-67
2022/06/02 10:54:22;;;;;;;3.80;3.50;;;19.60;99.90;;;;;;5050648;28;20044;-67
2022/06/02 10:57:13;;;;;;;6.38;3.75;;;19.50;98.10;;;;;;5056093;28;20634;-67
2022/06/02 11:00:06;;;;;;;7.45;3.60;;;19.60;98.00;;;;;;5068892;28;20045;-67
2022/06/02 11:02:56;;;;;;;4.45;3.78;;;19.60;98.60;;;;;;5058628;28;20048;-67
2022/06/02 11:06:00;;;;;;;3.95;3.55;;;19.40;94.80;;;;;;5049089;28;20107;-67
2022/06/02 11:08:54;;;;;;;3.83;3.53;;;19.40;99.90;;;;;;5048879;28;20053;-67
2022/06/02 11:11:38;;;;;;;7.78;3.58;;;19.60;99.90;;;;;;5055977;28;20067;-67
2022/06/02 11:14:45;;;;;;;4.35;3.95;;;19.90;99.90;;;;;;5053970;28;20520;-67
2022/06/02 11:17:18;;;;;;;5.40;3.83;;;20.20;99.90;;;;;;5062816;28;20044;-68
2022/06/02 11:19:53;;;;;;;4.22;3.80;;;20.40;98.40;;;;;;5060205;28;20064;-67
2022/06/02 11:22:52;;;;;;;3.10;2.80;;;20.50;99.90;;;;;;5056959;28;20036;-67
2022/06/02 11:25:37;;;;;;;4.88;3.72;;;20.80;95.00;;;;;;5060425;28;20712;-67
2022/06/02 11:28:32;;;;;;;3.38;3.08;;;21.00;96.50;;;;;;5055715;28;20489;-67
2022/06/02 11:31:19;;;;;;;3.97;3.40;;;21.00;90.10;;;;;;5048334;28;20048;-67
2022/06/02 11:34:06;;;;;;;3.95;3.60;;;21.10;79.90;;;;;;5054738;28;20076;-67
2022/06/02 11:36:46;;;;;;;4.25;3.85;;;21.00;91.20;;;;;;5067174;28;20047;-67
2022/06/02 11:39:36;;;;;;;5.70;3.65;;;21.30;93.10;;;;;;5054685;28;20110;-67
2022/06/02 11:42:20;;;;;;;3.58;3.25;;;21.50;78.10;;;;;;5049021;28;20083;-67
2022/06/02 11:45:14;;;;;;;3.80;3.50;;;21.60;80.50;;;;;;5050691;28;20064;-67
2022/06/02 11:48:01;;;;;;;3.30;3.00;;;21.70;79.70;;;;;;5064678;28;20036;-67
2022/06/02 11:51:03;;;;;;;5.72;3.38;;;21.50;85.60;;;;;;5055649;28;20110;-67
2022/06/02 11:53:51;;;;;;;3.58;3.28;;;21.20;78.00;;;;;;5047203;28;20453;-68
2022/06/02 11:56:45;;;;;;;5.13;3.15;;;21.10;83.80;;;;;;5060736;28;20072;-67
2022/06/02 11:59:49;;;;;;;5.18;3.13;;;21.30;78.50;;;;;;5046627;28;20057;-67
2022/06/02 12:02:57;;;;;;;10.00;3.63;;;21.40;74.00;;;;;;5049293;28;20126;-68
2022/06/02 12:05:37;;;;;;;3.33;3.03;;;21.20;73.30;;;;;;5051427;28;20049;-68
2022/06/02 12:08:12;;;;;;;4.38;3.38;;;21.10;85.80;;;;;;5053152;28;20068;-68
2022/06/02 12:10:55;;;;;;;4.53;3.35;;;21.50;90.90;;;;;;5054004;28;20418;-67
2022/06/02 12:13:35;;;;;;;4.38;3.35;;;21.60;85.60;;;;;;5055738;28;20045;-68
2022/06/02 12:16:38;;;;;;;4.15;3.35;;;21.70;80.30;;;;;;5063623;28;20473;-68
2022/06/02 12:19:10;;;;;;;3.80;3.50;;;21.60;85.50;;;;;;5050196;28;20052;-67
2022/06/02 12:22:21;;;;;;;5.97;4.43;;;21.50;86.40;;;;;;5047739;28;20070;-67
2022/06/02 12:24:56;;;;;;;3.58;3.28;;;21.10;78.00;;;;;;5056803;28;20710;-67
2022/06/02 12:27:46;;;;;;;26.38;5.53;;;20.90;82.70;;;;;;5053312;28;20057;-67
2022/06/02 12:30:30;;;;;;;27.13;4.57;;;20.60;78.10;;;;;;5049614;28;20044;-67
2022/06/02 12:33:35;;;;;;;427.52;44.25;;;20.40;86.10;;;;;;5051651;28;20086;-67
2022/06/02 12:36:26;;;;;;;5.13;3.60;;;20.50;91.00;;;;;;5058871;28;20159;-67
2022/06/02 12:39:18;;;;;;;4.63;3.65;;;20.50;92.50;;;;;;5051018;28;20056;-68
2022/06/02 12:41:50;;;;;;;4.47;4.07;;;20.40;86.50;;;;;;5053181;28;20057;-67
2022/06/02 12:44:21;;;;;;;5.10;3.25;;;20.30;87.20;;;;;;5047493;28;20416;-67
2022/06/02 12:47:18;;;;;;;3.65;3.25;;;20.10;82.40;;;;;;5063323;28;20040;-67
2022/06/02 12:50:21;;;;;;;8.35;3.78;;;19.90;74.40;;;;;;5063392;28;20052;-67
2022/06/02 12:53:26;;;;;;;6.05;4.57;;;19.80;75.70;;;;;;5049271;28;20049;-67
2022/06/02 12:56:28;;;;;;;4.18;3.63;;;20.00;78.50;;;;;;5058283;28;20048;-67
2022/06/02 12:59:02;;;;;;;4.40;3.38;;;20.40;84.50;;;;;;5061492;28;20067;-67
2022/06/02 13:01:52;;;;;;;4.88;3.47;;;20.70;82.50;;;;;;5057749;28;20080;-68
2022/06/02 13:04:54;;;;;;;21.77;5.10;;;21.00;84.40;;;;;;5047452;28;20088;-67
2022/06/02 13:07:46;;;;;;;7.47;3.40;;;21.20;88.30;;;;;;5062705;28;20170;-67
2022/06/02 13:10:53;;;;;;;3.55;3.25;;;21.60;88.60;;;;;;5053274;28;20044;-68
2022/06/02 13:13:37;;;;;;;;;;;21.70;78.10;;;;;;5052963;28;20045;-68
2022/06/02 13:16:45;;;;;;;6.32;4.18;;;21.60;76.80;;;;;;5053065;28;19935;-68
2022/06/02 13:19:25;;;;;;;4.10;3.70;;;21.80;75.90;;;;;;5053440;28;20060;-68
2022/06/02 13:22:18;;;;;;;3.88;3.50;;;21.90;72.50;;;;;;5054003;28;20075;-67
2022/06/02 13:25:06;;;;;;;4.88;3.95;;;21.80;72.40;;;;;;5053275;28;20032;-67
2022/06/02 13:27:53;;;;;;;4.47;3.72;;;22.00;75.00;;;;;;5062914;28;20047;-67
2022/06/02 13:30:35;;;;;;;8.13;4.07;;;21.90;82.60;;;;;;5069071;28;20529;-68
2022/06/02 13:33:19;;;;;;;4.15;3.70;;;21.90;71.10;;;;;;5066576;28;20051;-68
2022/06/02 13:35:59;;;;;;;4.85;3.80;;;21.70;70.40;;;;;;5063640;28;20037;-68
2022/06/02 13:39:00;;;;;;;4.68;4.20;;;21.60;74.50;;;;;;5065066;28;20048;-68
2022/06/02 13:41:51;;;;;;;5.35;4.63;;;21.60;72.80;;;;;;5055044;28;20124;-67
2022/06/02 13:44:20;;;;;;;3.63;3.35;;;21.50;74.90;;;;;;5058555;28;20052;-67
2022/06/02 13:47:27;;;;;;;4.63;3.30;;;21.30;76.00;;;;;;5055852;28;20386;-68
2022/06/02 13:49:56;;;;;;;4.53;3.97;;;21.50;72.20;;;;;;5033453;28;20057;-68
2022/06/02 13:52:40;;;;;;;7.18;5.07;;;21.40;77.00;;;;;;5050554;28;20056;-68
2022/06/02 13:59:08;;;;;;;12.60;4.25;;;20.90;71.60;;;;;;5055456;28;20064;-68
2022/06/02 14:01:59;;;;;;;5.60;3.92;;;20.60;73.60;;;;;;5057160;28;20052;-67
2022/06/02 14:04:37;;;;;;;4.57;4.13;;;20.60;78.80;;;;;;5055337;28;20570;-68
2022/06/02 14:07:24;;;;;;;8.95;4.00;;;20.50;80.10;;;;;;5068753;28;20501;-68
2022/06/02 14:09:58;;;;;;;8.25;4.20;;;20.50;83.20;;;;;;5058288;28;20120;-68
2022/06/02 14:12:37;;;;;;;11.73;5.05;;;20.60;81.70;;;;;;5052856;28;20060;-68
2022/06/02 14:15:34;;;;;;;4.32;3.97;;;20.80;82.90;;;;;;5055012;28;20040;-68
2022/06/02 14:18:21;;;;;;;6.15;4.65;;;20.80;79.90;;;;;;5053055;28;20509;-68
2022/06/02 14:21:01;;;;;;;7.22;4.65;;;20.90;73.30;;;;;;5053854;28;20041;-68
2022/06/02 14:23:57;;;;;;;8.60;4.85;;;20.90;76.30;;;;;;5050402;28;20045;-68
2022/06/02 14:26:39;;;;;;;6.00;4.38;;;20.80;75.00;;;;;;5049413;28;20110;-68
2022/06/02 14:29:33;;;;;;;4.47;3.90;;;21.00;77.00;;;;;;5056487;28;20438;-68
2022/06/02 14:32:17;;;;;;;6.63;4.20;;;21.10;76.10;;;;;;5051869;28;20075;-68